»·PEaware :: N187KT KWJF-KSNA

N187KT :: KWJF-KSNA

FLIGHT INFORMATION

Flight Status: Arrived
Operator: Privately registered:
United States
More flights under this callsign
Pilot: Kristoffer L. (6767)
Aircraft: BEECH AIRCRAFT BARON
(BE58)
More flights by this aircraft type
Origin: KWJF Gen Fox
United States
Destination: KSNA John Wayne-Orange Co
United States
More flights between these airports :: More routes between these airports
Route: +
File this flight plan on PilotEdge
Remarks:
Altitude:
(Current/Filed)
8,500ft
Speed:
(Current/Filed)
0kts
Departed: 07-Feb-19 12:39 PM
Arrived: 07-Feb-19 01:20 PM
Distance/Time
Traveled:
66nm/0:41
Distance/Time
To Go:
Arrived

Flight Plot

Page will automatically refresh every two minutes.


Map Options




Map Legend


Flown Route
Filed Route
Departure Airport
Arrival Airport
Navaid (VOR, NDB)
Fix

Horizontal Profiles

Position Reports

Time Latitude Longitude Heading Altitude Ground
Speed
07-Feb-19 12:28 34.739070 -118.217232 254 2347ft 0kts
07-Feb-19 12:29 34.739070 -118.217232 254 2347ft 0kts
07-Feb-19 12:30 34.739070 -118.217232 254 2347ft 0kts
07-Feb-19 12:31 34.739070 -118.217232 254 2347ft 0kts
07-Feb-19 12:32 34.739298 -118.217443 334 2347ft 4kts
07-Feb-19 12:33 34.740007 -118.218781 253 2347ft 13kts
07-Feb-19 12:34 34.738249 -118.225484 251 2351ft 20kts
07-Feb-19 12:35 34.737264 -118.229597 318 2355ft 0kts
07-Feb-19 12:36 34.737283 -118.229616 322 2355ft 0kts
07-Feb-19 12:37 34.738585 -118.227899 70 2353ft 31kts
07-Feb-19 12:38 34.749123 -118.193150 64 3078ft 116kts
07-Feb-19 12:39 34.734205 -118.163633 177 4148ft 129kts
07-Feb-19 12:40 34.698541 -118.181786 207 5200ft 143kts
07-Feb-19 12:41 34.662882 -118.205869 208 6289ft 147kts
07-Feb-19 12:42 34.626379 -118.230263 210 7299ft 149kts
07-Feb-19 12:43 34.590637 -118.256489 214 8224ft 149kts
07-Feb-19 12:44 34.561689 -118.278922 210 8485ft 153kts
07-Feb-19 12:45 34.524842 -118.302415 206 8761ft 154kts
07-Feb-19 12:46 34.477165 -118.327582 203 8509ft 178kts
07-Feb-19 12:47 34.430806 -118.351185 204 8360ft 165kts
07-Feb-19 12:48 34.389963 -118.374615 207 8433ft 149kts
07-Feb-19 12:49 34.353943 -118.398172 205 8829ft 140kts
07-Feb-19 12:50 34.319668 -118.422273 208 9424ft 142kts
07-Feb-19 12:51 34.281307 -118.447385 209 9621ft 158kts
07-Feb-19 12:52 34.242052 -118.476310 211 9416ft 163kts
07-Feb-19 12:53 34.198660 -118.480201 138 9337ft 157kts
07-Feb-19 12:54 34.168560 -118.439351 132 9435ft 160kts
07-Feb-19 12:55 34.135976 -118.401359 137 9607ft 163kts
07-Feb-19 12:56 34.102729 -118.366742 140 9481ft 169kts
07-Feb-19 12:57 34.066181 -118.330483 140 9446ft 165kts
07-Feb-19 12:58 34.029868 -118.294144 140 9355ft 165kts
07-Feb-19 12:59 33.993592 -118.257882 139 9267ft 165kts
07-Feb-19 13:00 33.958756 -118.221676 141 9402ft 156kts
07-Feb-19 13:01 33.924314 -118.188095 141 9521ft 155kts
07-Feb-19 13:02 33.890410 -118.153615 139 9578ft 157kts
07-Feb-19 13:03 33.855713 -118.119465 143 9652ft 156kts
07-Feb-19 13:04 33.820520 -118.085005 140 9584ft 162kts
07-Feb-19 13:05 33.783643 -118.050711 144 9518ft 160kts
07-Feb-19 13:06 33.750425 -118.011900 135 9387ft 165kts
07-Feb-19 13:07 33.716780 -117.972436 132 8771ft 166kts
07-Feb-19 13:08 33.684484 -117.931504 133 7942ft 164kts
07-Feb-19 13:09 33.652416 -117.895844 138 7250ft 156kts
07-Feb-19 13:10 33.619299 -117.858152 130 6255ft 160kts
07-Feb-19 13:11 33.591241 -117.817857 119 5463ft 147kts
07-Feb-19 13:12 33.597659 -117.772290 52 4527ft 148kts
07-Feb-19 13:13 33.624315 -117.741908 31 3838ft 116kts
07-Feb-19 13:14 33.659503 -117.723251 8 3946ft 144kts
07-Feb-19 13:15 33.697960 -117.737696 319 4299ft 135kts
07-Feb-19 13:16 33.708304 -117.782485 285 3699ft 151kts
07-Feb-19 13:17 33.710861 -117.830081 243 1850ft 119kts
07-Feb-19 13:18 33.690826 -117.857364 211 325ft 99kts
07-Feb-19 13:19 33.674009 -117.867700 154 60ft 11kts
07-Feb-19 13:20 33.673233 -117.867178 210 60ft 13kts
07-Feb-19 13:21 33.672353 -117.867074 307 60ft 0kts
07-Feb-19 13:22 33.672353 -117.867074 307 60ft 0kts

Navigation Log

Ident Type
Flight plan parsing failed, navigation log unavailable